createdAt,value
2022-12-29T00:01:11.311Z,98274.94
2022-12-29T00:03:39.644Z,98275.00
2022-12-29T00:06:09.226Z,98269.75
2022-12-29T00:08:46.027Z,98279.94
2022-12-29T00:11:16.091Z,98272.09
2022-12-29T00:14:02.440Z,98268.06
2022-12-29T00:16:31.759Z,98273.13
2022-12-29T00:19:00.150Z,98283.31
2022-12-29T00:21:56.239Z,98275.00
2022-12-29T00:24:42.317Z,98281.81
2022-12-29T00:27:31.569Z,98279.56
2022-12-29T00:30:17.392Z,98283.72
2022-12-29T00:33:03.832Z,98275.19
2022-12-29T00:35:35.281Z,98267.91
2022-12-29T00:38:27.260Z,98273.09
2022-12-29T00:41:12.495Z,98278.38
2022-12-29T00:43:57.806Z,98273.09
2022-12-29T00:46:25.928Z,98273.34
2022-12-29T00:49:11.402Z,98270.25
2022-12-29T00:51:39.688Z,98279.06
2022-12-29T00:54:09.355Z,98276.53
2022-12-29T00:56:37.801Z,98268.88
2022-12-29T00:59:07.421Z,98275.50
2022-12-29T01:01:36.593Z,98274.50
2022-12-29T01:04:05.355Z,98275.34
2022-12-29T01:06:34.157Z,98278.53
2022-12-29T01:09:20.131Z,98270.03
2022-12-29T01:11:51.027Z,98264.59
2022-12-29T01:14:20.122Z,98272.78
2022-12-29T01:16:48.806Z,98270.44
2022-12-29T01:19:19.999Z,98263.09
2022-12-29T01:21:48.378Z,98254.44
2022-12-29T01:24:17.565Z,98254.88
2022-12-29T01:26:46.615Z,98242.09
2022-12-29T01:29:16.247Z,98240.97
2022-12-29T01:31:47.224Z,98236.81
2022-12-29T01:34:15.766Z,98234.50
2022-12-29T01:36:44.478Z,98238.22
2022-12-29T01:39:14.357Z,98244.00
2022-12-29T01:41:42.773Z,98240.78
2022-12-29T01:44:48.436Z,98236.19
2022-12-29T01:47:25.510Z,98236.59
2022-12-29T01:49:57.078Z,98237.91
2022-12-29T01:52:29.174Z,98234.91
2022-12-29T01:54:59.382Z,98227.72
2022-12-29T01:57:30.027Z,98218.91
2022-12-29T02:00:02.524Z,98229.47
2022-12-29T02:02:45.296Z,98236.09
2022-12-29T02:05:18.221Z,98227.06
2022-12-29T02:07:47.480Z,98218.09
2022-12-29T02:10:16.027Z,98217.63
2022-12-29T02:12:44.450Z,98211.72
2022-12-29T02:15:12.918Z,98215.47
2022-12-29T02:17:55.724Z,98222.81
2022-12-29T02:20:52.702Z,98219.94
2022-12-29T02:23:40.304Z,98216.94
2022-12-29T02:26:37.186Z,98230.38
2022-12-29T02:29:27.127Z,98239.63
2022-12-29T02:32:03.223Z,98218.63
2022-12-29T02:34:42.540Z,98203.72
2022-12-29T02:37:19.770Z,98211.44
2022-12-29T02:39:59.169Z,98203.38
2022-12-29T02:42:37.854Z,98190.28
2022-12-29T02:45:11.591Z,98179.63
2022-12-29T02:47:50.820Z,98166.09
2022-12-29T02:50:25.363Z,98173.09
2022-12-29T02:52:59.599Z,98171.13
2022-12-29T02:55:27.175Z,98172.63
2022-12-29T02:58:19.833Z,98173.97
2022-12-29T03:01:04.323Z,98172.31
2022-12-29T03:03:48.925Z,98176.13
2022-12-29T03:06:30.749Z,98166.97
2022-12-29T03:09:05.251Z,98177.81
2022-12-29T03:12:11.483Z,98168.38
2022-12-29T03:15:09.169Z,98175.53
2022-12-29T03:17:47.485Z,98158.47
2022-12-29T03:20:22.312Z,98161.19
2022-12-29T03:22:54.935Z,98169.13
2022-12-29T03:25:28.362Z,98168.97
2022-12-29T03:28:01.890Z,98168.97
2022-12-29T03:30:33.553Z,98179.16
2022-12-29T03:33:05.981Z,98177.81
2022-12-29T03:35:45.344Z,98177.34
2022-12-29T03:38:19.473Z,98174.41
2022-12-29T03:40:52.557Z,98170.63
2022-12-29T03:43:22.167Z,98169.56
2022-12-29T03:45:50.718Z,98167.72
2022-12-29T03:48:19.678Z,98163.81
2022-12-29T03:50:50.123Z,98166.97
2022-12-29T03:53:19.233Z,98167.44
2022-12-29T03:55:47.507Z,98174.31
2022-12-29T03:58:15.669Z,98168.38
2022-12-29T04:01:00.795Z,98174.31
2022-12-29T04:03:29.391Z,98186.19
2022-12-29T04:06:00.843Z,98187.28
2022-12-29T04:08:34.025Z,98168.53
2022-12-29T04:11:02.211Z,98160.13
2022-12-29T04:13:30.460Z,98168.84
2022-12-29T04:15:58.769Z,98175.69
2022-12-29T04:18:26.909Z,98175.69
2022-12-29T04:21:04.642Z,98170.03
2022-12-29T04:23:38.527Z,98177.34
2022-12-29T04:26:10.584Z,98171.38
2022-12-29T04:29:04.745Z,98162.38
2022-12-29T04:31:42.954Z,98159.09
2022-12-29T04:34:11.169Z,98147.66
2022-12-29T04:36:41.224Z,98143.53
2022-12-29T04:39:10.710Z,98143.03
2022-12-29T04:41:40.723Z,98141.69
2022-12-29T04:44:13.147Z,98144.75
2022-12-29T04:46:57.241Z,98130.56
2022-12-29T04:49:44.874Z,98122.97
2022-12-29T04:52:47.999Z,98131.66
2022-12-29T04:55:17.777Z,98127.38
2022-12-29T04:57:46.946Z,98127.69
2022-12-29T05:00:19.560Z,98114.56
2022-12-29T05:02:48.555Z,98120.97
2022-12-29T05:05:17.605Z,98129.31
2022-12-29T05:07:49.538Z,98132.06
2022-12-29T05:10:20.010Z,98122.31
2022-12-29T05:12:50.307Z,98129.75
2022-12-29T05:15:19.251Z,98127.34
2022-12-29T05:17:47.420Z,98117.31
2022-12-29T05:20:15.579Z,98122.34
2022-12-29T05:22:44.018Z,98114.13
2022-12-29T05:25:12.280Z,98118.09
2022-12-29T05:27:53.904Z,98118.97
2022-12-29T05:30:40.751Z,98112.59
2022-12-29T05:33:08.893Z,98111.84
2022-12-29T05:35:37.074Z,98117.78
2022-12-29T05:38:05.207Z,98121.44
2022-12-29T05:40:33.479Z,98130.28
2022-12-29T05:43:07.413Z,98124.19
2022-12-29T05:45:57.268Z,98111.69
2022-12-29T05:48:37.634Z,98113.34
2022-12-29T05:51:19.919Z,98119.09
2022-12-29T05:53:50.177Z,98130.16
2022-12-29T05:56:19.148Z,98131.34
2022-12-29T05:58:55.297Z,98134.19
2022-12-29T06:01:24.462Z,98129.88
2022-12-29T06:03:52.740Z,98137.84
2022-12-29T06:06:22.213Z,98121.56
2022-12-29T06:08:50.455Z,98117.16
2022-12-29T06:11:20.848Z,98108.31
2022-12-29T06:13:57.558Z,98107.06
2022-12-29T06:16:26.316Z,98106.78
2022-12-29T06:18:58.659Z,98115.06
2022-12-29T06:21:26.808Z,98115.53
2022-12-29T06:23:54.849Z,98116.06
2022-12-29T06:26:23.009Z,98112.75
2022-12-29T06:28:51.206Z,98112.59
2022-12-29T06:31:20.858Z,98114.88
2022-12-29T06:33:50.398Z,98121.28
2022-12-29T06:36:19.011Z,98113.97
2022-12-29T06:38:47.259Z,98111.38
2022-12-29T06:41:15.348Z,98103.59
2022-12-29T06:44:09.839Z,98101.63
2022-12-29T06:46:52.873Z,98108.03
2022-12-29T06:49:21.041Z,98111.69
2022-12-29T06:51:49.148Z,98113.34
2022-12-29T06:54:17.290Z,98106.22
2022-12-29T06:56:45.343Z,98096.88
2022-12-29T06:59:13.626Z,98091.25
2022-12-29T07:01:42.413Z,98102.69
2022-12-29T07:04:11.943Z,98101.28
2022-12-29T07:06:41.701Z,98106.94
2022-12-29T07:09:10.413Z,98103.88
2022-12-29T07:11:38.759Z,98101.00
2022-12-29T07:14:06.907Z,98094.28
2022-12-29T07:16:35.468Z,98099.91
2022-12-29T07:19:03.612Z,98099.25
2022-12-29T07:21:33.173Z,98113.16
2022-12-29T07:24:01.261Z,98122.59
2022-12-29T07:26:35.983Z,98122.69
2022-12-29T07:29:04.536Z,98121.88
2022-12-29T07:31:33.353Z,98122.16
2022-12-29T07:34:01.486Z,98121.22
2022-12-29T07:36:34.402Z,98111.00
2022-12-29T07:39:04.938Z,98105.84
2022-12-29T07:41:33.127Z,98105.25
2022-12-29T07:44:03.767Z,98106.31
2022-12-29T07:46:56.460Z,98092.94
2022-12-29T07:49:25.893Z,98084.63
2022-12-29T07:51:54.260Z,98088.69
2022-12-29T07:54:24.390Z,98080.28
2022-12-29T07:56:53.104Z,98080.78
2022-12-29T07:59:21.205Z,98072.72
2022-12-29T08:01:49.403Z,98085.53
2022-12-29T08:04:17.679Z,98085.81
2022-12-29T08:06:46.567Z,98090.47
2022-12-29T08:09:21.583Z,98088.31
2022-12-29T08:11:51.367Z,98087.34
2022-12-29T08:14:19.876Z,98081.31
2022-12-29T08:16:48.100Z,98081.50
2022-12-29T08:19:16.488Z,98082.44
2022-12-29T08:21:44.553Z,98082.19
2022-12-29T08:24:12.720Z,98071.09
2022-12-29T08:26:40.979Z,98083.25
2022-12-29T08:29:10.448Z,98083.13
2022-12-29T08:31:38.796Z,98091.72
2022-12-29T08:34:06.938Z,98091.00
2022-12-29T08:36:35.126Z,98087.56
2022-12-29T08:39:03.283Z,98104.84
2022-12-29T08:41:31.381Z,98106.94
2022-12-29T08:43:59.443Z,98105.59
2022-12-29T08:46:29.065Z,98094.44
2022-12-29T08:48:57.315Z,98095.22
2022-12-29T08:51:25.607Z,98091.44
2022-12-29T08:53:54.014Z,98089.19
2022-12-29T08:56:23.393Z,98090.47
2022-12-29T08:58:55.954Z,98093.69
2022-12-29T09:01:24.908Z,98082.13
2022-12-29T09:06:44.017Z,98078.31
2022-12-29T09:09:12.352Z,98082.81
2022-12-29T09:11:41.082Z,98086.72
2022-12-29T09:14:09.121Z,98090.50
2022-12-29T09:16:37.916Z,98081.00
2022-12-29T09:19:07.687Z,98079.88
2022-12-29T09:21:35.837Z,98066.59
2022-12-29T09:24:04.148Z,98055.19
2022-12-29T09:26:32.172Z,98058.72
2022-12-29T09:29:00.228Z,98053.03
2022-12-29T09:31:28.320Z,98038.97
2022-12-29T09:33:56.418Z,98037.81
2022-12-29T09:36:25.877Z,98048.94
2022-12-29T09:38:55.417Z,98057.13
2022-12-29T09:41:28.885Z,98059.78
2022-12-29T09:44:14.979Z,98064.56
2022-12-29T09:46:48.661Z,98074.63
2022-12-29T09:49:25.628Z,98069.66
2022-12-29T09:51:57.934Z,98062.38
2022-12-29T09:54:42.458Z,98064.94
2022-12-29T09:57:20.616Z,98070.94
2022-12-29T09:59:52.893Z,98074.28
2022-12-29T10:02:33.397Z,98071.22
2022-12-29T10:05:01.957Z,98058.84
2022-12-29T10:07:40.922Z,98064.16
2022-12-29T10:10:24.729Z,98066.91
2022-12-29T10:13:02.877Z,98049.03
2022-12-29T10:15:46.049Z,98047.44
2022-12-29T10:18:34.671Z,98056.47
2022-12-29T10:21:10.762Z,98058.22
2022-12-29T10:23:44.730Z,98050.38
2022-12-29T10:26:17.205Z,98044.53
2022-12-29T10:28:51.595Z,98041.91
2022-12-29T10:31:23.935Z,98045.69
2022-12-29T10:33:57.708Z,98041.91
2022-12-29T10:36:33.133Z,98037.22
2022-12-29T10:39:12.579Z,98033.22
2022-12-29T10:41:46.174Z,98027.88
2022-12-29T10:44:18.441Z,98035.75
2022-12-29T10:46:54.935Z,98018.31
2022-12-29T10:49:23.441Z,98024.84
2022-12-29T10:51:53.518Z,98010.19
2022-12-29T10:54:28.976Z,98016.69
2022-12-29T10:57:02.511Z,98006.41
2022-12-29T10:59:33.175Z,98007.81
2022-12-29T11:02:16.795Z,98003.03
2022-12-29T11:04:55.506Z,98001.06
2022-12-29T11:07:27.275Z,97996.59
2022-12-29T11:09:57.106Z,97998.72
2022-12-29T11:12:28.443Z,97993.56
2022-12-29T11:15:16.253Z,97992.06
2022-12-29T11:17:47.254Z,97985.28
2022-12-29T11:20:36.553Z,97986.34
2022-12-29T11:23:06.804Z,97997.94
2022-12-29T11:25:36.375Z,97994.88
2022-12-29T11:28:17.524Z,97996.03
2022-12-29T11:30:45.653Z,97998.97
2022-12-29T11:33:13.865Z,97982.50
2022-12-29T11:35:44.539Z,97984.25
2022-12-29T11:38:23.051Z,97977.88
2022-12-29T11:40:52.843Z,97984.09
2022-12-29T11:43:28.873Z,97982.63
2022-12-29T11:45:57.681Z,97991.72
2022-12-29T11:48:31.208Z,97976.75
2022-12-29T11:51:01.477Z,97972.09
2022-12-29T11:53:34.562Z,97974.34
2022-12-29T11:56:07.691Z,97975.22
2022-12-29T11:58:37.828Z,97972.91
2022-12-29T12:01:09.294Z,97970.47
2022-12-29T12:03:40.944Z,97965.19
2022-12-29T12:06:16.673Z,97965.13
2022-12-29T12:08:50.964Z,97961.88
2022-12-29T12:11:25.424Z,97951.09
2022-12-29T12:14:01.925Z,97968.69
2022-12-29T12:16:45.680Z,97967.47
2022-12-29T12:19:22.376Z,97962.09
2022-12-29T12:21:58.257Z,97972.69
2022-12-29T12:24:38.540Z,97967.66
2022-12-29T12:27:15.129Z,97959.13
2022-12-29T12:29:49.317Z,97960.16
2022-12-29T12:32:22.876Z,97966.31
2022-12-29T12:34:52.512Z,97951.13
2022-12-29T12:37:50.967Z,97959.88
2022-12-29T12:40:41.764Z,97961.66
2022-12-29T12:43:34.184Z,97959.91
2022-12-29T12:46:18.043Z,97956.91
2022-12-29T12:49:04.808Z,97952.63
2022-12-29T12:51:42.538Z,97959.13
2022-12-29T12:54:25.248Z,97962.44
2022-12-29T12:57:04.855Z,97957.91
2022-12-29T12:59:44.541Z,97956.41
2022-12-29T13:02:26.748Z,97960.69
2022-12-29T13:05:31.425Z,97960.69
2022-12-29T13:08:26.837Z,97959.41
2022-12-29T13:11:01.913Z,97961.66
2022-12-29T13:13:49.622Z,97957.41
2022-12-29T13:16:29.591Z,97956.41
2022-12-29T13:19:05.900Z,97964.94
2022-12-29T13:21:57.372Z,97964.59
2022-12-29T13:24:34.115Z,97967.19
2022-12-29T13:27:08.830Z,97970.97
2022-12-29T13:29:42.713Z,97977.78
2022-12-29T13:32:26.230Z,97975.28
2022-12-29T13:35:05.261Z,97983.09
2022-12-29T13:37:40.510Z,97985.59
2022-12-29T13:40:17.529Z,97982.84
2022-12-29T13:42:46.732Z,97989.38
2022-12-29T13:45:18.997Z,97991.41
2022-12-29T13:47:53.434Z,98001.22
2022-12-29T13:50:24.100Z,98000.22
2022-12-29T13:53:02.215Z,97994.16
2022-12-29T13:55:37.884Z,97984.50
2022-12-29T13:58:12.029Z,97988.59
2022-12-29T14:00:50.188Z,97984.06
2022-12-29T14:03:36.760Z,97968.41
2022-12-29T14:06:15.100Z,97980.81
2022-12-29T14:08:43.472Z,97981.84
2022-12-29T14:11:13.109Z,97978.31
2022-12-29T14:13:51.304Z,97977.28
2022-12-29T14:16:32.007Z,97979.81
2022-12-29T14:19:12.664Z,97979.50
2022-12-29T14:21:41.787Z,97983.59
2022-12-29T14:24:44.451Z,97976.97
2022-12-29T14:28:04.163Z,97980.03
2022-12-29T14:31:03.786Z,97983.13
2022-12-29T14:33:33.638Z,97968.69
2022-12-29T14:36:27.094Z,97967.84
2022-12-29T14:38:55.329Z,97967.72
2022-12-29T14:41:31.285Z,97975.50
2022-12-29T14:44:19.989Z,97974.72
2022-12-29T14:46:56.722Z,97978.03
2022-12-29T14:49:27.633Z,97985.50
2022-12-29T14:52:08.470Z,97987.34
2022-12-29T14:54:50.389Z,97988.38
2022-12-29T14:57:39.002Z,97986.09
2022-12-29T15:00:16.848Z,97999.47
2022-12-29T15:02:49.893Z,98003.41
2022-12-29T15:05:32.768Z,98005.16
2022-12-29T15:08:04.613Z,98003.88
2022-12-29T15:10:40.678Z,98006.19
2022-12-29T15:13:18.035Z,97996.63
2022-12-29T15:15:46.338Z,97992.06
2022-12-29T15:18:16.910Z,97992.63
2022-12-29T15:20:45.356Z,97998.66
2022-12-29T15:23:16.624Z,97998.13
2022-12-29T15:25:52.460Z,97999.09
2022-12-29T15:28:23.726Z,98003.13
2022-12-29T15:30:57.229Z,98007.81
2022-12-29T15:33:28.357Z,97999.63
2022-12-29T15:35:58.727Z,97997.63
2022-12-29T15:38:34.891Z,98008.00
2022-12-29T15:41:17.720Z,97996.34
2022-12-29T15:43:55.532Z,98003.69
2022-12-29T15:46:24.128Z,98001.69
2022-12-29T15:48:52.709Z,98002.69
2022-12-29T15:51:25.751Z,97996.63
2022-12-29T15:53:56.384Z,97998.63
2022-12-29T15:56:24.611Z,97995.97
2022-12-29T15:58:54.260Z,98011.06
2022-12-29T16:01:29.799Z,98000.25
2022-12-29T16:04:00.415Z,98002.72
2022-12-29T16:06:31.784Z,98007.97
2022-12-29T16:09:03.741Z,98005.63
2022-12-29T16:11:37.115Z,98006.63
2022-12-29T16:14:10.719Z,98003.66
2022-12-29T16:16:41.734Z,98003.81
2022-12-29T16:19:16.124Z,98006.06
2022-12-29T16:21:45.238Z,97996.47
2022-12-29T16:24:25.688Z,98010.34
2022-12-29T16:27:11.032Z,98000.19
2022-12-29T16:29:39.415Z,98000.91
2022-12-29T16:32:26.898Z,97999.69
2022-12-29T16:35:11.787Z,97996.66
2022-12-29T16:37:40.403Z,97996.66
2022-12-29T16:40:42.162Z,98001.91
2022-12-29T16:43:22.505Z,98005.56
2022-12-29T16:46:19.461Z,98001.50
2022-12-29T16:48:53.776Z,98000.25
2022-12-29T16:51:31.833Z,98000.84
2022-12-29T16:54:01.232Z,97997.19
2022-12-29T16:56:33.561Z,98004.44
2022-12-29T16:59:06.982Z,98007.28
2022-12-29T17:01:38.203Z,98011.84
2022-12-29T17:04:10.079Z,98005.69
2022-12-29T17:06:38.300Z,98004.94
2022-12-29T17:09:22.549Z,98007.28
2022-12-29T17:12:02.900Z,98008.44
2022-12-29T17:14:43.064Z,98013.56
2022-12-29T17:17:17.594Z,98005.97
2022-12-29T17:19:49.591Z,98006.59
2022-12-29T17:22:20.917Z,97999.78
2022-12-29T17:24:49.126Z,98010.94
2022-12-29T17:27:29.915Z,98003.59
2022-12-29T17:30:01.153Z,98009.50
2022-12-29T17:32:29.382Z,98011.84
2022-12-29T17:34:57.460Z,98002.28
2022-12-29T17:37:35.435Z,98008.97
2022-12-29T17:40:04.680Z,98010.66
2022-12-29T17:42:34.914Z,98015.72
2022-12-29T17:45:03.741Z,98015.06
2022-12-29T17:47:31.842Z,98017.38
2022-12-29T17:49:59.960Z,98014.16
2022-12-29T17:52:28.127Z,98013.06
2022-12-29T17:54:56.571Z,98015.22
2022-12-29T17:57:24.739Z,98027.13
2022-12-29T17:59:54.171Z,98017.91
2022-12-29T18:02:29.332Z,98021.00
2022-12-29T18:04:58.108Z,98022.94
2022-12-29T18:07:35.385Z,98019.63
2022-12-29T18:10:04.061Z,98013.25
2022-12-29T18:12:39.294Z,98017.09
2022-12-29T18:15:18.902Z,98023.63
2022-12-29T18:17:47.582Z,98027.63
2022-12-29T18:20:16.848Z,98027.25
2022-12-29T18:22:44.990Z,98016.72
2022-12-29T18:25:26.339Z,98017.34
2022-12-29T18:27:54.628Z,98018.31
2022-12-29T18:30:24.868Z,98021.50
2022-12-29T18:32:53.028Z,98008.06
2022-12-29T18:35:27.843Z,98021.84
2022-12-29T18:37:55.939Z,98019.03
2022-12-29T18:40:24.118Z,98029.09
2022-12-29T18:42:52.279Z,98016.19
2022-12-29T18:45:22.126Z,98011.72
2022-12-29T18:47:54.912Z,98015.66
2022-12-29T18:50:23.352Z,98013.44
2022-12-29T18:52:51.566Z,98025.38
2022-12-29T18:55:24.647Z,98023.09
2022-12-29T18:57:53.603Z,98017.34
2022-12-29T19:00:23.992Z,98015.31
2022-12-29T19:02:54.315Z,98014.94
2022-12-29T19:05:25.844Z,98010.81
2022-12-29T19:07:55.001Z,98005.53
2022-12-29T19:10:24.481Z,98005.81
2022-12-29T19:12:53.551Z,98008.78
2022-12-29T19:15:25.363Z,98001.94
2022-12-29T19:18:32.764Z,98002.03
2022-12-29T19:20:49.020Z,98004.56
2022-12-29T19:23:19.448Z,97999.09
2022-12-29T19:25:48.852Z,97999.44
2022-12-29T19:28:20.238Z,97996.78
2022-12-29T19:30:52.289Z,97996.78
2022-12-29T19:33:23.609Z,97998.59
2022-12-29T19:35:52.753Z,97999.03
2022-12-29T19:38:21.227Z,98006.31
2022-12-29T19:40:51.536Z,98000.50
2022-12-29T19:43:20.090Z,98012.13
2022-12-29T19:45:48.304Z,98020.00
2022-12-29T19:48:19.700Z,98025.47
2022-12-29T19:50:49.336Z,98010.03
2022-12-29T19:53:17.463Z,98009.94
2022-12-29T19:55:46.264Z,98012.97
2022-12-29T19:58:14.785Z,98010.81
2022-12-29T20:00:43.847Z,98013.34
2022-12-29T20:03:12.681Z,97999.50
2022-12-29T20:05:41.696Z,97992.91
2022-12-29T20:08:11.141Z,98004.84
2022-12-29T20:10:39.331Z,98016.66
2022-12-29T20:13:07.590Z,98021.56
2022-12-29T20:15:35.769Z,98029.00
2022-12-29T20:18:13.682Z,98036.41
2022-12-29T20:20:42.929Z,98021.56
2022-12-29T20:23:12.516Z,98015.00
2022-12-29T20:25:45.605Z,98016.00
2022-12-29T20:28:15.666Z,98012.06
2022-12-29T20:30:44.387Z,98017.75
2022-12-29T20:33:12.637Z,98017.63
2022-12-29T20:35:40.703Z,98029.97
2022-12-29T20:38:08.844Z,98027.22
2022-12-29T20:40:45.934Z,98029.56
2022-12-29T20:43:16.613Z,98022.94
2022-12-29T20:45:45.096Z,98022.16
2022-12-29T20:48:13.265Z,98026.53
2022-12-29T20:50:41.505Z,98039.22
2022-12-29T20:53:09.741Z,98029.09
2022-12-29T20:55:41.266Z,98037.19
2022-12-29T20:58:25.395Z,98046.22
2022-12-29T21:00:54.526Z,98040.56
2022-12-29T21:03:23.018Z,98034.75
2022-12-29T21:05:53.107Z,98039.16
2022-12-29T21:08:22.115Z,98039.00
2022-12-29T21:10:52.535Z,98049.44
2022-12-29T21:13:21.153Z,98041.03
2022-12-29T21:15:49.540Z,98041.34
2022-12-29T21:18:17.884Z,98039.28
2022-12-29T21:20:45.923Z,98041.59
2022-12-29T21:23:14.077Z,98036.03
2022-12-29T21:25:44.929Z,98032.91
2022-12-29T21:28:14.432Z,98030.63
2022-12-29T21:30:43.140Z,98029.81
2022-12-29T21:33:11.319Z,98043.13
2022-12-29T21:35:40.106Z,98053.19
2022-12-29T21:38:08.873Z,98053.19
2022-12-29T21:40:38.543Z,98044.00
2022-12-29T21:43:07.547Z,98046.09
2022-12-29T21:45:36.074Z,98052.25
2022-12-29T21:48:25.187Z,98068.56
2022-12-29T21:51:12.597Z,98052.56
2022-12-29T21:53:42.766Z,98043.91
2022-12-29T21:56:12.884Z,98043.06
2022-12-29T21:59:00.398Z,98033.69
2022-12-29T22:01:49.563Z,98031.59
2022-12-29T22:04:37.973Z,98028.06
2022-12-29T22:07:26.143Z,98030.34
2022-12-29T22:10:11.758Z,98039.69
2022-12-29T22:12:58.954Z,98041.66
2022-12-29T22:15:29.694Z,98046.56
2022-12-29T22:17:59.449Z,98054.78
2022-12-29T22:20:32.344Z,98048.81
2022-12-29T22:23:01.056Z,98058.22
2022-12-29T22:25:29.257Z,98055.16
2022-12-29T22:27:59.901Z,98047.56
2022-12-29T22:30:28.546Z,98044.28
2022-12-29T22:32:59.639Z,98053.94
2022-12-29T22:35:27.861Z,98049.69
2022-12-29T22:37:56.055Z,98060.03
2022-12-29T22:40:24.409Z,98055.91
2022-12-29T22:42:52.527Z,98062.09
2022-12-29T22:45:20.647Z,98067.59
2022-12-29T22:47:48.799Z,98066.13
2022-12-29T22:50:18.458Z,98074.84
2022-12-29T22:52:46.546Z,98083.50
2022-12-29T22:55:14.678Z,98075.44
2022-12-29T22:57:42.865Z,98081.69
2022-12-29T23:00:12.124Z,98074.81
2022-12-29T23:02:40.415Z,98066.78
2022-12-29T23:05:09.631Z,98059.91
2022-12-29T23:07:39.119Z,98053.41
2022-12-29T23:10:08.136Z,98056.56
2022-12-29T23:12:36.265Z,98062.91
2022-12-29T23:15:04.785Z,98080.28
2022-12-29T23:17:33.185Z,98083.81
2022-12-29T23:20:01.252Z,98073.31
2022-12-29T23:22:29.358Z,98063.56
2022-12-29T23:24:59.084Z,98068.25
2022-12-29T23:27:27.247Z,98061.34
2022-12-29T23:29:55.335Z,98068.69
2022-12-29T23:32:23.460Z,98068.72
2022-12-29T23:34:51.533Z,98062.63
2022-12-29T23:37:19.678Z,98067.22
2022-12-29T23:39:47.811Z,98066.75
2022-12-29T23:42:17.272Z,98057.19
2022-12-29T23:44:45.397Z,98054.09
2022-12-29T23:47:13.721Z,98055.81
2022-12-29T23:49:41.832Z,98061.00
2022-12-29T23:52:09.928Z,98055.28
2022-12-29T23:54:37.984Z,98059.31
2022-12-29T23:57:06.087Z,98047.38
2022-12-29T23:59:35.540Z,98053.69
